Hlavní strana
METAR-TAF:

METAR-TAF

Letiště :

Sarh, Čad

zeměpisná šířka: 09-09N, zeměpisná délka: 018-23E, výška: 365 m

Aktuální stav počasí

Zpráva byla vytvořena před 46 minutami, v 19:00 UTC
Bezvětří
Teplota 23°C
Vlhkost vzduchu 57%
Tlak 1011 hPa
Viditelnost 10 km a více
Žádná oblačnost pod 1500 m, nevyskytují se cumulonimby.

METAR: FTTA 051900Z 00000KT CAVOK 23/14 Q1011

Čas: 20:46 (19:46 UTC)


TAF: chybějící

Stav a předpovědi počasí z více než 4 000 letišť (zprávy METAR a TAF).

Červené a žluté tečky na mapě představují dostupné meteorologické stanice.

Když kurzor umístíte na tečku, zobrazí se název stanice.

Pak kliknutím zobrazíte stav a předpověď počasí.

Chcete-li změnit mapu, kliknutím na zelené tlačítko se znaménkem +mapu přiblížíte, kliknutím na zelené tlačítko se znaménkem – mapu oddálíte a kliknutím na zelené šipky přejdete na sousední mapy.


METAR-TAF: